WetterOnline ( https://www.wetteronline.de )

Wetter aktuell Palingen

Aktuelles Wetter: Lübeck/Blankensee (15m)

6-stündlich | Neueste Meldungen
Ortszeit Temperatur Wetter
Do, 22.08. 20:00 22.5° C leicht bewölkt
Do, 22.08. 14:00 24.3° C wolkenlos
Do, 22.08. 8:00 14.0° C fast wolkenlos
Do, 22.08. 2:00 10.1° C wolkenlos
Mi, 21.08. 20:00 18.9° C bewölkt
Mi, 21.08. 14:00 19.8° C fast wolkenlos
Mi, 21.08. 8:00 13.5° C wolkenlos
Mi, 21.08. 2:00 13.3° C bewölkt
Ortszeit Temperatur Wetter
Do, 22.08. 20:00 22.5° C leicht bewölkt
Do, 22.08. 19:50 22.5° C leicht bewölkt
Do, 22.08. 19:40 23.3° C fast wolkenlos
Do, 22.08. 19:30 24.3° C wolkig
Do, 22.08. 19:20 24.3° C wolkig
Do, 22.08. 19:10 24.6° C wolkig
Do, 22.08. 19:00 24.5° C leicht bewölkt
Do, 22.08. 18:30 25.0° C wolkig
Do, 22.08. 18:00 25.2° C leicht bewölkt
Do, 22.08. 17:30 25.2° C wolkig
Do, 22.08. 17:00 25.3° C leicht bewölkt
Ortszeit Relative Feuchte Sichtweite
Do, 22.08. 20:00 52% 55 km
Do, 22.08. 14:00 35% 45 km
Do, 22.08. 8:00 83% 45 km
Do, 22.08. 2:00 97% 28 km
Mi, 21.08. 20:00 59% 65 km
Mi, 21.08. 14:00 53% 55 km
Mi, 21.08. 8:00 91% 26 km
Mi, 21.08. 2:00 97% 20 km
Ortszeit Relative Feuchte Sichtweite
Do, 22.08. 20:00 52% 55 km
Do, 22.08. 19:50 52% -
Do, 22.08. 19:40 48% -
Do, 22.08. 19:30 42% 65 km
Do, 22.08. 19:20 42% -
Do, 22.08. 19:10 39% -
Do, 22.08. 19:00 40% 55 km
Do, 22.08. 18:30 38% 65 km
Do, 22.08. 18:00 37% 50 km
Do, 22.08. 17:30 35% >70 km
Do, 22.08. 17:00 34% 50 km
Ortszeit Niederschlagsmenge Niederschlagsart
Do, 22.08. 20:00 0.0 l/m2 in 12 Std. -
Do, 22.08. 14:00 0.0 l/m2 in 6 Std. -
Do, 22.08. 8:00 0.0 l/m2 in 12 Std. -
Do, 22.08. 2:00 0.0 l/m2 in 6 Std. -
Mi, 21.08. 20:00 0.0 l/m2 in 12 Std. -
Mi, 21.08. 14:00 0.0 l/m2 in 6 Std. -
Mi, 21.08. 8:00 8 l/m2 in 12 Std. -
Mi, 21.08. 2:00 8 l/m2 in 6 Std. Regen
Ortszeit Niederschlagsmenge Niederschlagsart
Do, 22.08. 20:00 0.0 l/m2 in 1 Std. -
Do, 22.08. 19:50 keine Meldung -
Do, 22.08. 19:40 keine Meldung -
Do, 22.08. 19:30 0.0 l/m2 in 1 Std. -
Do, 22.08. 19:20 keine Meldung -
Do, 22.08. 19:10 keine Meldung -
Do, 22.08. 19:00 0.0 l/m2 in 1 Std. -
Do, 22.08. 18:30 0.0 l/m2 in 1 Std. -
Do, 22.08. 18:00 0.0 l/m2 in 1 Std. -
Do, 22.08. 17:30 0.0 l/m2 in 1 Std. -
Do, 22.08. 17:00 0.0 l/m2 in 1 Std. -
Ortszeit Stärke Spitze Richtung
km/h Bft. km/h Grad Sektor
Do, 22.08. 20:00 4 1 36 210° SW
Do, 22.08. 14:00 11 2 25 180° S
Do, 22.08. 8:00 7 2 11 160° S
Do, 22.08. 2:00 0 0 7 - -
Mi, 21.08. 20:00 7 2 29 300° NW
Mi, 21.08. 14:00 15 3 31 260° W
Mi, 21.08. 8:00 4 1 11 220° SW
Mi, 21.08. 2:00 7 2 22 180° S
Ortszeit Stärke Spitze Richtung
km/h Bft. km/h Grad Sektor
Do, 22.08. 20:00 4 1 7 210° SW
Do, 22.08. 19:50 4 1 - 210° SW
Do, 22.08. 19:40 2 1 - 220° SW
Do, 22.08. 19:30 2 1 7 210° SW
Do, 22.08. 19:20 2 1 - 210° SW
Do, 22.08. 19:10 4 1 - 230° SW
Do, 22.08. 19:00 4 1 18 220° SW
Do, 22.08. 18:30 7 2 18 250° W
Do, 22.08. 18:00 9 2 22 240° SW
Do, 22.08. 17:30 9 2 22 230° SW
Do, 22.08. 17:00 7 2 25 190° S
Ortszeit Untergrenze Bedeckung Gattung
total tief tief mittel hoch
Do, 22.08. 20:00 10500 m 4/8 0/8 - - -
Do, 22.08. 14:00 10500 m 0/8 0/8 - - -
Do, 22.08. 8:00 10500 m 2/8 0/8 - - -
Do, 22.08. 2:00 9000 m 0/8 0/8 - - -
Mi, 21.08. 20:00 2100 m 7/8 7/8 - - -
Mi, 21.08. 14:00 2100 m 1/8 1/8 - - -
Mi, 21.08. 8:00 - 0/8 0/8 - - -
Mi, 21.08. 2:00 2700 m 8/8 7/8 - - -
Ortszeit Bedeckungsgrad in Achtel und Wolkenuntergrenze
Do, 22.08. 20:00 4(10500m)
Do, 22.08. 19:50 4(10500m)
Do, 22.08. 19:40 2(10500m) 2(10500m)
Do, 22.08. 19:30 5(9000m) 8(10500m) 8(10500m)
Do, 22.08. 19:20 5(9000m) 8(10500m) 8(10500m)
Do, 22.08. 19:10 8(9000m) 8(10500m)
Do, 22.08. 19:00 5(9000m) 7(10500m) 8(10500m)
Do, 22.08. 18:30 8(9000m) 8(10500m) 8(10500m)
Do, 22.08. 18:00 6(9000m) 8(9000m) 8(10500m)
Do, 22.08. 17:30 5(9000m) 7(10500m) 7(10500m)
Do, 22.08. 17:00 6(10500m) 7(10500m) 7(10500m)
Ortszeit Luftdruck NN (hPa) Tendenz (hPa in 3 Std.)
Do, 22.08. 20:00 1024 - 0,5
Do, 22.08. 14:00 1026 - 1,5
Do, 22.08. 8:00 1028 - 0,5
Do, 22.08. 2:00 1029 - 0,2
Mi, 21.08. 20:00 1028 + 0,1
Mi, 21.08. 14:00 1028 + 0,1
Mi, 21.08. 8:00 1027 + 1,4
Mi, 21.08. 2:00 1025 + 0,9
Ortszeit Luftdruck NN (hPa) Tendenz (hPa in 3 Std.)
Do, 22.08. 20:00 1024 - 0,5
Do, 22.08. 19:50 1024 keine Meldung
Do, 22.08. 19:40 1024 keine Meldung
Do, 22.08. 19:30 1024 - 0,8
Do, 22.08. 19:20 1024 keine Meldung
Do, 22.08. 19:10 1024 keine Meldung
Do, 22.08. 19:00 1024 - 1,0
Do, 22.08. 18:30 1024 - 0,9
Do, 22.08. 18:00 1024 - 1,1
Do, 22.08. 17:30 1025 - 1,0
Do, 22.08. 17:00 1025 - 1,0
Ortszeit Schneehöhe (cm)
Do, 22.08. 20:00 -
Do, 22.08. 14:00 -
Do, 22.08. 8:00 -
Do, 22.08. 2:00 -
Mi, 21.08. 20:00 -
Mi, 21.08. 14:00 -
Mi, 21.08. 8:00 -
Mi, 21.08. 2:00 -
Ortszeit Schneehöhe (cm)
Do, 22.08. 20:00 -
Do, 22.08. 19:50 -
Do, 22.08. 19:40 -
Do, 22.08. 19:30 -
Do, 22.08. 19:20 -
Do, 22.08. 19:10 -
Do, 22.08. 19:00 -
Do, 22.08. 18:30 -
Do, 22.08. 18:00 -
Do, 22.08. 17:30 -
Do, 22.08. 17:00 -
Link zu dieser Seite / Seite empfehlen

Das Wetter in ...